Aérodrome :
LOGIN :

S'inscrire | Disclaimer

   EN    FR    IT 

 










Légende :    VFR   VFR Marginal   IFR   IFR Intensif   IFR Très Intensif
Visi : 
Plafond : 
>= 8 km
>= 3000ft
5 à 8 km
1000 à 3000 ft
1500m à 5 km
500 à 1000 ft
800 à 1500m
200 à 500 ft
< 800m
< 200 ft
Symboles :   Orages  Brouillard  Fortes neiges  Fortes précipitations  Vent > 20 kt
SIGMETs :   Divers  Orages  Givrage  Turbulence  Onde Orograph.  Cendres Volcan.







- Altitude de l'aérodrome : 74 ft
- Code IATA : NDZ


ETMN - Cuxhaven Nordholz Sea AB

DERNIER METAR :
  • 251937Z 27015KT 9999 SCT010 SCT014 BKN030 08/06 Q1009 BLU BLU TEMPO YLO

METARs EXPIRÉS :
  • 251920Z 24008KT 8000 -RA SCT010 BKN013 08/07 Q1009 GRN BLU TEMPO YLO
  • 251904Z 25006KT 8000 -RA FEW010 BKN017 08/07 Q1009 WHT BLU TEMPO YLO
  • 251847Z 25007KT 9999 -SHRA FEW012 BKN025 08/07 Q1009 BLU BLU TEMPO YLO
  • 251838Z 26008KT 7000 -SHRA FEW012TCU BKN017 08/06 Q1009 WHT BLU TEMPO YLO
  • 251820Z 28008KT 7000 -SHRA FEW015TCU SCT030 BKN050 08/06 Q1009 RESHRA WHT BLU TEMPO YLO
  • 251812Z 26008KT 3500 SHRA FEW015TCU SCT030 BKN060 08/06 Q1009 YLO BLU TEMPO YLO
  • 251720Z 23004KT 8000 FEW004 FEW020CB BKN060 07/06 Q1009 RESHRA BLU BLU TEMPO YLO
  • 251713Z 24006G16KT 8000 R26/1900U FEW004 SCT020CB BKN050 07/06 Q1009 RESHRA BLU BLU TEMPO YLO
  • 251705Z 26018G32KT 3700 R26/1600D -SHRA BR FEW004 SCT020CB BKN050 07/05 Q1009 RESHRA GRN BLU TEMPO YLO
  • 251655Z 26006KT 2000 SHRA FEW010 SCT020CB BKN050 10/06 Q1009 YLO BLU TEMPO YLO

TAF COR TAF ETMN
Valide du 25 à 17h jusqu'au 26 à 02h UTC


251656Z 2517/2602 27008KT 9999 NSW SCT015 BKN040
TEMPO 2517/2520 24008G18KT 2000 SHGS SCT010 BKN015CB
Pas de NOTAMs connus pour ce terrain.



MET'MAP, la Météo Aéronautique d'un coup d'oeil ! - Copyright ORBIFLY Décembre 2007 - Disclaimer

ORBIFLY MET'MAP TEAM :

Programmation & Développement : Alexandra Zaïnal
Conception & Développement : Baudouin d'Aumeries
Co-Programmation & Développement : Marc-Olivier Méhu
Soutien technique & logistique : Manuel Goepfert

Contact : metmap@orbifly.com




SOURCES & CREDITS :

   NOAA